createdAt,value
2022-08-07T00:02:36.166Z,55.08
2022-08-07T00:05:04.405Z,55.41
2022-08-07T00:07:59.778Z,55.40
2022-08-07T00:10:30.825Z,55.59
2022-08-07T00:13:03.145Z,55.60
2022-08-07T00:15:46.330Z,55.60
2022-08-07T00:18:27.590Z,56.02
2022-08-07T00:21:01.982Z,55.92
2022-08-07T00:23:41.066Z,56.52
2022-08-07T00:26:49.419Z,56.61
2022-08-07T00:29:04.730Z,56.97
2022-08-07T00:31:38.171Z,57.08
2022-08-07T00:34:10.069Z,57.31
2022-08-07T00:36:43.156Z,57.30
2022-08-07T00:39:16.717Z,57.62
2022-08-07T00:41:53.580Z,57.70
2022-08-07T00:44:21.891Z,58.03
2022-08-07T00:46:53.522Z,58.17
2022-08-07T00:49:24.941Z,58.12
2022-08-07T00:52:12.427Z,57.91
2022-08-07T00:54:40.724Z,58.33
2022-08-07T00:57:09.660Z,58.39
2022-08-07T00:59:37.184Z,59.02
2022-08-07T01:02:28.066Z,59.20
2022-08-07T01:04:58.590Z,59.54
2022-08-07T01:07:29.648Z,59.57
2022-08-07T01:10:04.232Z,59.73
2022-08-07T01:12:32.544Z,60.01
2022-08-07T01:15:03.776Z,59.99
2022-08-07T01:17:34.518Z,59.89
2022-08-07T01:20:09.642Z,60.43
2022-08-07T01:22:37.975Z,60.53
2022-08-07T01:25:39.921Z,61.28
2022-08-07T01:28:02.976Z,61.06
2022-08-07T01:30:31.822Z,61.16
2022-08-07T01:33:04.944Z,61.34
2022-08-07T01:35:53.273Z,60.88
2022-08-07T01:38:32.291Z,60.73
2022-08-07T01:41:06.431Z,60.53
2022-08-07T01:43:38.550Z,59.75
2022-08-07T01:46:28.113Z,58.95
2022-08-07T01:49:03.931Z,58.89
2022-08-07T01:52:04.277Z,58.69
2022-08-07T01:54:32.616Z,58.10
2022-08-07T01:57:24.310Z,58.01
2022-08-07T02:00:03.106Z,58.46
2022-08-07T02:03:12.125Z,57.53
2022-08-07T02:05:47.669Z,57.70
2022-08-07T02:08:23.663Z,57.43
2022-08-07T02:10:55.475Z,57.59
2022-08-07T02:13:57.512Z,57.59
2022-08-07T02:16:17.874Z,57.65
2022-08-07T02:18:48.468Z,57.91
2022-08-07T02:21:22.654Z,57.81
2022-08-07T02:23:50.383Z,57.86
2022-08-07T02:26:33.122Z,57.66
2022-08-07T02:29:06.677Z,57.66
2022-08-07T02:31:41.656Z,57.44
2022-08-07T02:34:11.082Z,57.58
2022-08-07T02:36:40.003Z,57.64
2022-08-07T02:39:17.464Z,57.27
2022-08-07T02:42:10.111Z,57.24
2022-08-07T02:44:47.921Z,56.98
2022-08-07T02:47:23.526Z,57.03
2022-08-07T02:49:59.634Z,56.76
2022-08-07T02:52:38.592Z,56.94
2022-08-07T02:55:28.751Z,56.58
2022-08-07T02:58:34.680Z,56.44
2022-08-07T03:01:03.749Z,56.75
2022-08-07T03:03:42.158Z,56.71
2022-08-07T03:06:25.590Z,57.09
2022-08-07T03:09:05.170Z,57.07
2022-08-07T03:11:38.939Z,57.33
2022-08-07T03:14:23.068Z,57.38
2022-08-07T03:16:52.830Z,57.54
2022-08-07T03:19:20.801Z,57.58
2022-08-07T03:21:51.113Z,57.88
2022-08-07T03:24:26.919Z,58.29
2022-08-07T03:27:03.215Z,58.34
2022-08-07T03:29:49.305Z,58.34
2022-08-07T03:32:30.922Z,58.19
2022-08-07T03:35:16.625Z,58.07
2022-08-07T03:38:01.997Z,58.50
2022-08-07T03:40:36.179Z,58.31
2022-08-07T03:43:05.202Z,58.33
2022-08-07T03:45:43.468Z,57.97
2022-08-07T03:48:25.931Z,57.96
2022-08-07T03:50:57.576Z,58.12
2022-08-07T03:53:50.205Z,58.09
2022-08-07T03:56:32.712Z,58.54
2022-08-07T03:59:08.923Z,58.24
2022-08-07T04:01:47.757Z,58.12
2022-08-07T04:04:19.855Z,57.41
2022-08-07T04:06:51.634Z,57.81
2022-08-07T04:09:23.550Z,57.34
2022-08-07T04:12:26.287Z,57.25
2022-08-07T04:14:43.586Z,56.75
2022-08-07T04:17:20.477Z,56.56
2022-08-07T04:19:54.026Z,56.51
2022-08-07T04:22:28.995Z,56.00
2022-08-07T04:25:01.640Z,55.60
2022-08-07T04:27:35.617Z,55.74
2022-08-07T04:30:11.903Z,55.67
2022-08-07T04:32:44.832Z,55.63
2022-08-07T04:35:15.382Z,55.52
2022-08-07T04:38:01.360Z,55.10
2022-08-07T04:40:32.342Z,54.88
2022-08-07T04:43:01.973Z,54.85
2022-08-07T04:46:29.274Z,54.62
2022-08-07T04:49:17.943Z,54.52
2022-08-07T04:52:04.304Z,54.04
2022-08-07T04:54:58.432Z,54.09
2022-08-07T04:58:14.587Z,53.82
2022-08-07T05:00:47.391Z,53.56
2022-08-07T05:03:38.694Z,53.86
2022-08-07T05:06:43.392Z,53.32
2022-08-07T05:09:28.045Z,53.29
2022-08-07T05:12:26.531Z,53.02
2022-08-07T05:15:15.563Z,52.94
2022-08-07T05:17:58.375Z,52.47
2022-08-07T05:20:38.785Z,51.93
2022-08-07T05:23:15.517Z,51.94
2022-08-07T05:26:13.805Z,51.77
2022-08-07T05:28:36.665Z,51.39
2022-08-07T05:31:16.674Z,50.95
2022-08-07T05:34:01.527Z,50.92
2022-08-07T05:36:35.785Z,50.40
2022-08-07T05:40:05.659Z,50.36
2022-08-07T05:42:01.550Z,49.58
2022-08-07T05:44:34.940Z,48.06
2022-08-07T05:47:18.225Z,46.58
2022-08-07T05:49:50.403Z,46.76
2022-08-07T05:52:19.979Z,45.61
2022-08-07T05:54:55.843Z,45.70
2022-08-07T05:57:37.219Z,44.93
2022-08-07T06:00:16.152Z,44.25
2022-08-07T06:03:53.983Z,43.52
2022-08-07T06:06:47.622Z,42.63
2022-08-07T06:10:05.300Z,42.20
2022-08-07T06:12:35.032Z,41.67
2022-08-07T06:15:05.193Z,41.57
2022-08-07T06:17:38.138Z,41.05
2022-08-07T06:20:49.997Z,40.46
2022-08-07T06:23:24.996Z,39.79
2022-08-07T06:26:13.661Z,39.38
2022-08-07T06:28:59.444Z,39.12
2022-08-07T06:31:47.124Z,38.82
2022-08-07T06:34:19.638Z,39.59
2022-08-07T06:36:55.000Z,39.14
2022-08-07T06:40:13.564Z,39.12
2022-08-07T06:42:32.988Z,39.18
2022-08-07T06:45:21.204Z,38.96
2022-08-07T06:48:11.554Z,38.90
2022-08-07T06:50:55.899Z,38.81
2022-08-07T06:55:27.501Z,38.69
2022-08-07T06:56:16.148Z,38.73
2022-08-07T07:00:11.415Z,38.69
2022-08-07T07:01:51.062Z,38.93
2022-08-07T07:04:58.957Z,38.90
2022-08-07T07:08:00.388Z,39.00
2022-08-07T07:10:15.230Z,39.33
2022-08-07T07:12:53.761Z,39.21
2022-08-07T07:15:26.362Z,38.44
2022-08-07T07:18:33.085Z,38.73
2022-08-07T07:21:21.850Z,37.95
2022-08-07T07:24:14.020Z,37.74
2022-08-07T07:26:52.351Z,37.79
2022-08-07T07:29:56.761Z,38.02
2022-08-07T07:32:14.109Z,37.89
2022-08-07T07:34:55.364Z,38.06
2022-08-07T07:37:49.400Z,38.24
2022-08-07T07:40:19.616Z,37.44
2022-08-07T07:42:54.340Z,37.38
2022-08-07T07:46:37.691Z,37.34
2022-08-07T07:48:24.113Z,37.25
2022-08-07T07:51:10.237Z,36.95
2022-08-07T07:53:53.831Z,36.53
2022-08-07T07:56:31.355Z,36.36
2022-08-07T07:59:06.091Z,36.13
2022-08-07T08:02:04.061Z,35.67
2022-08-07T08:04:30.300Z,35.23
2022-08-07T08:07:00.640Z,35.79
2022-08-07T08:09:33.372Z,36.15
2022-08-07T08:12:52.488Z,36.23
2022-08-07T08:15:15.230Z,36.48
2022-08-07T08:18:17.442Z,36.47
2022-08-07T08:20:58.027Z,36.78
2022-08-07T08:23:52.675Z,36.66
2022-08-07T08:26:42.999Z,36.59
2022-08-07T08:29:19.005Z,35.91
2022-08-07T08:31:59.024Z,35.75
2022-08-07T08:34:47.326Z,35.28
2022-08-07T08:38:00.295Z,35.15
2022-08-07T08:40:16.307Z,34.89
2022-08-07T08:43:19.960Z,34.25
2022-08-07T08:46:02.793Z,34.69
2022-08-07T08:49:18.718Z,35.73
2022-08-07T08:52:13.942Z,35.67
2022-08-07T08:55:04.644Z,35.72
2022-08-07T08:58:25.062Z,35.69
2022-08-07T09:01:15.216Z,35.36
2022-08-07T09:04:13.520Z,35.36
2022-08-07T09:07:46.463Z,35.26
2022-08-07T09:10:44.492Z,34.89
2022-08-07T09:13:39.012Z,34.63
2022-08-07T09:16:30.614Z,35.06
2022-08-07T09:19:50.981Z,35.07
2022-08-07T09:24:33.899Z,34.63
2022-08-07T09:25:53.460Z,33.59
2022-08-07T09:30:02.067Z,33.39
2022-08-07T09:32:01.772Z,34.20
2022-08-07T09:34:54.691Z,34.85
2022-08-07T09:37:48.262Z,34.91
2022-08-07T09:40:44.187Z,34.85
2022-08-07T09:44:06.264Z,34.04
2022-08-07T09:48:00.313Z,34.09
2022-08-07T09:50:47.351Z,34.69
2022-08-07T09:53:24.423Z,34.67
2022-08-07T09:56:05.356Z,34.07
2022-08-07T09:58:51.221Z,34.73
2022-08-07T10:01:50.997Z,34.96
2022-08-07T10:04:33.077Z,34.99
2022-08-07T10:07:52.870Z,35.23
2022-08-07T10:10:28.337Z,35.25
2022-08-07T10:13:54.878Z,35.58
2022-08-07T10:16:29.910Z,35.53
2022-08-07T10:19:11.241Z,35.33
2022-08-07T10:22:15.553Z,35.78
2022-08-07T10:25:02.578Z,36.00
2022-08-07T10:27:51.153Z,36.13
2022-08-07T10:30:53.093Z,35.94
2022-08-07T10:34:06.797Z,35.98
2022-08-07T10:36:40.155Z,35.82
2022-08-07T10:39:41.507Z,35.77
2022-08-07T10:42:41.885Z,35.66
2022-08-07T10:45:45.056Z,35.23
2022-08-07T10:48:25.061Z,34.20
2022-08-07T10:52:01.686Z,33.08
2022-08-07T10:54:37.804Z,31.41
2022-08-07T10:57:34.285Z,30.81
2022-08-07T11:00:39.271Z,30.59
2022-08-07T11:03:16.890Z,30.18
2022-08-07T11:05:57.776Z,30.33
2022-08-07T11:08:38.985Z,31.14
2022-08-07T11:11:20.974Z,32.01
2022-08-07T11:14:45.254Z,32.30
2022-08-07T11:17:07.401Z,32.43
2022-08-07T11:19:35.927Z,32.77
2022-08-07T11:22:26.657Z,32.65
2022-08-07T11:25:16.210Z,32.83
2022-08-07T11:28:03.138Z,33.07
2022-08-07T11:30:54.520Z,33.16
2022-08-07T11:33:59.123Z,33.49
2022-08-07T11:36:46.449Z,33.28
2022-08-07T11:40:00.005Z,32.60
2022-08-07T11:42:46.950Z,31.11
2022-08-07T11:45:49.909Z,30.68
2022-08-07T11:49:50.804Z,30.89
2022-08-07T11:52:03.972Z,31.12
2022-08-07T11:55:00.113Z,31.88
2022-08-07T11:58:00.293Z,31.61
2022-08-07T12:00:39.971Z,31.57
2022-08-07T12:03:41.888Z,31.16
2022-08-07T12:06:37.482Z,31.26
2022-08-07T12:09:24.390Z,30.97
2022-08-07T12:12:12.041Z,31.17
2022-08-07T12:14:55.642Z,30.98
2022-08-07T12:18:11.416Z,30.28
2022-08-07T12:21:04.885Z,30.18
2022-08-07T12:24:07.030Z,30.18
2022-08-07T12:26:58.931Z,30.15
2022-08-07T12:30:00.147Z,30.31
2022-08-07T12:32:50.205Z,30.43
2022-08-07T12:35:29.366Z,29.69
2022-08-07T12:38:09.313Z,29.38
2022-08-07T12:40:47.522Z,29.67
2022-08-07T12:44:01.735Z,28.96
2022-08-07T12:46:25.985Z,28.87
2022-08-07T12:49:10.208Z,28.77
2022-08-07T12:52:13.664Z,28.59
2022-08-07T12:54:54.628Z,28.51
2022-08-07T12:57:39.322Z,27.97
2022-08-07T13:00:31.291Z,28.02
2022-08-07T13:03:13.117Z,27.90
2022-08-07T13:06:16.991Z,28.54
2022-08-07T13:10:20.931Z,29.29
2022-08-07T13:12:40.264Z,29.87
2022-08-07T13:15:23.559Z,30.31
2022-08-07T13:18:28.242Z,30.23
2022-08-07T13:21:50.539Z,29.37
2022-08-07T13:25:02.505Z,28.68
2022-08-07T13:28:11.459Z,28.14
2022-08-07T13:30:40.254Z,27.56
2022-08-07T13:34:31.955Z,27.73
2022-08-07T13:37:19.810Z,27.68
2022-08-07T13:40:35.882Z,27.62
2022-08-07T13:43:16.868Z,26.92
2022-08-07T13:46:11.831Z,27.49
2022-08-07T13:48:59.349Z,27.57
2022-08-07T13:52:05.616Z,27.81
2022-08-07T13:54:33.457Z,27.46
2022-08-07T13:57:14.471Z,27.40
2022-08-07T13:59:56.539Z,28.19
2022-08-07T14:02:39.826Z,28.44
2022-08-07T14:05:24.610Z,28.09
2022-08-07T14:08:12.178Z,28.34
2022-08-07T14:10:44.778Z,28.23
2022-08-07T14:13:36.946Z,28.92
2022-08-07T14:16:19.484Z,29.55
2022-08-07T14:18:57.645Z,29.77
2022-08-07T14:22:02.444Z,30.07
2022-08-07T14:24:29.206Z,30.37
2022-08-07T14:28:09.970Z,30.25
2022-08-07T14:30:11.984Z,30.52
2022-08-07T14:32:59.562Z,30.54
2022-08-07T14:35:43.407Z,30.35
2022-08-07T14:38:33.595Z,30.32
2022-08-07T14:41:20.697Z,30.35
2022-08-07T14:44:20.827Z,29.97
2022-08-07T14:50:27.628Z,29.14
2022-08-07T14:53:07.417Z,29.11
2022-08-07T14:55:55.323Z,28.83
2022-08-07T15:01:42.380Z,28.87
2022-08-07T15:04:25.857Z,28.74
2022-08-07T15:07:17.676Z,28.69
2022-08-07T15:09:59.743Z,28.74
2022-08-07T15:12:41.964Z,28.59
2022-08-07T15:15:53.465Z,28.88
2022-08-07T15:18:41.744Z,28.71
2022-08-07T15:21:58.623Z,29.10
2022-08-07T15:25:14.758Z,29.00
2022-08-07T15:27:35.890Z,28.97
2022-08-07T15:30:16.491Z,29.25
2022-08-07T15:36:05.102Z,29.31
2022-08-07T15:38:51.491Z,29.64
2022-08-07T15:42:43.993Z,29.72
2022-08-07T15:44:25.887Z,29.90
2022-08-07T15:47:03.437Z,29.86
2022-08-07T15:50:04.108Z,30.17
2022-08-07T15:52:36.192Z,30.10
2022-08-07T15:55:12.883Z,30.29
2022-08-07T15:57:48.772Z,30.34
2022-08-07T16:00:33.604Z,30.65
2022-08-07T16:03:20.520Z,30.53
2022-08-07T16:05:55.419Z,30.63
2022-08-07T16:08:31.178Z,30.77
2022-08-07T16:11:26.310Z,30.74
2022-08-07T16:14:03.429Z,30.84
2022-08-07T16:17:16.074Z,30.84
2022-08-07T16:20:33.826Z,30.80
2022-08-07T16:23:55.111Z,30.66
2022-08-07T16:26:16.859Z,30.50
2022-08-07T16:30:10.830Z,30.83
2022-08-07T16:32:38.297Z,30.91
2022-08-07T16:35:51.701Z,30.72
2022-08-07T16:38:57.499Z,30.50
2022-08-07T16:42:06.867Z,30.80
2022-08-07T16:45:15.556Z,30.94
2022-08-07T16:48:13.560Z,30.83
2022-08-07T16:52:01.371Z,30.80
2022-08-07T16:54:21.398Z,30.82
2022-08-07T16:58:01.618Z,30.78
2022-08-07T17:01:09.756Z,30.52
2022-08-07T17:04:24.936Z,30.32
2022-08-07T17:07:10.022Z,30.34
2022-08-07T17:10:05.147Z,30.44
2022-08-07T17:13:01.057Z,30.57
2022-08-07T17:15:51.715Z,30.33
2022-08-07T17:18:51.702Z,30.33
2022-08-07T17:21:26.668Z,30.46
2022-08-07T17:24:37.777Z,30.65
2022-08-07T17:27:19.635Z,30.66
2022-08-07T17:30:15.974Z,30.94
2022-08-07T17:34:15.025Z,30.95
2022-08-07T17:36:57.845Z,31.23
2022-08-07T17:39:52.980Z,31.44
2022-08-07T17:42:58.703Z,31.86
2022-08-07T17:45:50.771Z,32.08
2022-08-07T17:48:42.737Z,32.40
2022-08-07T17:52:00.445Z,32.59
2022-08-07T17:54:53.598Z,32.75
2022-08-07T17:57:56.665Z,32.84
2022-08-07T18:00:48.447Z,33.02
2022-08-07T18:04:04.576Z,33.05
2022-08-07T18:06:38.613Z,33.41
2022-08-07T18:10:05.985Z,33.73
2022-08-07T18:13:23.244Z,34.36
2022-08-07T18:16:00.074Z,34.71
2022-08-07T18:21:01.200Z,35.24
2022-08-07T18:21:51.398Z,36.06
2022-08-07T18:24:51.271Z,37.25
2022-08-07T18:28:12.425Z,37.98
2022-08-07T18:31:50.080Z,38.47
2022-08-07T18:34:53.232Z,38.75
2022-08-07T18:38:56.753Z,39.16
2022-08-07T18:41:44.978Z,39.43
2022-08-07T18:45:43.689Z,39.59
2022-08-07T18:48:01.345Z,39.87
2022-08-07T18:52:33.514Z,40.10
2022-08-07T18:54:30.522Z,40.35
2022-08-07T18:57:40.270Z,40.39
2022-08-07T19:00:32.643Z,40.74
2022-08-07T19:03:56.742Z,40.75
2022-08-07T19:07:34.482Z,41.16
2022-08-07T19:10:21.354Z,41.76
2022-08-07T19:13:11.834Z,42.01
2022-08-07T19:16:05.878Z,42.19
2022-08-07T19:18:52.158Z,42.10
2022-08-07T19:21:56.179Z,42.51
2022-08-07T19:24:51.159Z,42.39
2022-08-07T19:28:56.836Z,42.70
2022-08-07T19:31:00.551Z,43.13
2022-08-07T19:33:34.650Z,43.09
2022-08-07T19:36:03.780Z,43.07
2022-08-07T19:38:53.143Z,43.22
2022-08-07T19:41:39.325Z,43.50
2022-08-07T19:44:21.786Z,43.64
2022-08-07T19:46:57.740Z,43.89
2022-08-07T19:49:57.459Z,43.93
2022-08-07T19:52:35.357Z,43.97
2022-08-07T19:55:11.035Z,44.29
2022-08-07T19:58:00.891Z,44.43
2022-08-07T20:00:55.413Z,44.68
2022-08-07T20:03:44.392Z,44.99
2022-08-07T20:06:28.562Z,44.98
2022-08-07T20:10:35.919Z,45.27
2022-08-07T20:12:34.606Z,45.32
2022-08-07T20:15:22.362Z,45.68
2022-08-07T20:18:01.722Z,45.75
2022-08-07T20:20:34.048Z,45.86
2022-08-07T20:23:32.790Z,46.25
2022-08-07T20:26:38.636Z,45.67
2022-08-07T20:29:48.243Z,45.68
2022-08-07T20:32:27.577Z,45.54
2022-08-07T20:35:13.081Z,45.80
2022-08-07T20:37:59.469Z,46.02
2022-08-07T20:40:51.512Z,45.89
2022-08-07T20:43:36.472Z,46.13
2022-08-07T20:46:25.959Z,46.13
2022-08-07T20:49:58.115Z,45.95
2022-08-07T20:52:50.276Z,46.26
2022-08-07T20:55:36.421Z,46.51
2022-08-07T20:59:02.921Z,46.46
2022-08-07T21:02:58.994Z,46.73
2022-08-07T21:06:37.404Z,46.96
2022-08-07T21:10:00.242Z,47.23
2022-08-07T21:16:56.559Z,47.78
2022-08-07T21:20:29.687Z,47.95
2022-08-07T21:23:50.332Z,48.24
2022-08-07T21:27:40.118Z,48.27
2022-08-07T21:30:44.223Z,48.56
2022-08-07T21:33:41.219Z,48.82
2022-08-07T21:36:31.734Z,48.95
2022-08-07T21:40:06.013Z,49.03
2022-08-07T21:42:56.510Z,49.23
2022-08-07T21:46:07.960Z,49.29
2022-08-07T21:48:57.415Z,49.30
2022-08-07T21:51:27.935Z,49.08
2022-08-07T21:54:38.951Z,48.63
2022-08-07T21:57:58.150Z,48.66
2022-08-07T22:00:32.073Z,48.71
2022-08-07T22:03:31.759Z,48.70
2022-08-07T22:06:06.513Z,48.55
2022-08-07T22:08:49.437Z,48.70
2022-08-07T22:11:21.877Z,49.12
2022-08-07T22:14:05.238Z,49.24
2022-08-07T22:16:49.278Z,49.34
2022-08-07T22:19:23.494Z,49.67
2022-08-07T22:22:20.717Z,50.01
2022-08-07T22:25:10.228Z,50.18
2022-08-07T22:28:29.724Z,50.35
2022-08-07T22:31:04.923Z,50.70
2022-08-07T22:33:57.038Z,50.86
2022-08-07T22:36:52.985Z,51.16
2022-08-07T22:39:53.130Z,51.31
2022-08-07T22:42:29.631Z,51.65
2022-08-07T22:45:02.514Z,51.75
2022-08-07T22:47:39.573Z,51.82
2022-08-07T22:50:29.150Z,51.95
2022-08-07T22:54:07.527Z,51.99
2022-08-07T22:56:58.058Z,52.48
2022-08-07T22:59:49.832Z,52.47
2022-08-07T23:02:39.306Z,52.59
2022-08-07T23:06:09.841Z,52.67
2022-08-07T23:08:30.084Z,53.12
2022-08-07T23:11:26.806Z,52.86
2022-08-07T23:14:15.071Z,53.20
2022-08-07T23:16:55.295Z,53.34
2022-08-07T23:20:18.158Z,53.08
2022-08-07T23:24:04.299Z,53.37
2022-08-07T23:26:19.759Z,53.26
2022-08-07T23:30:35.365Z,53.32
2022-08-07T23:34:21.349Z,53.39
2022-08-07T23:36:02.242Z,54.03
2022-08-07T23:39:09.389Z,53.77
2022-08-07T23:42:05.569Z,53.67
2022-08-07T23:44:54.373Z,53.72
2022-08-07T23:47:50.071Z,53.63
2022-08-07T23:50:36.748Z,53.65
2022-08-07T23:53:45.944Z,53.57
2022-08-07T23:56:54.123Z,53.56
